sensor_id;sensor_type;location;lat;lon;timestamp;temperature;humidity
10133;DHT22;5106;50.926;7.080;2024-03-22T00:01:05;9.50;96.50
10133;DHT22;5106;50.926;7.080;2024-03-22T00:03:31;9.50;96.50
10133;DHT22;5106;50.926;7.080;2024-03-22T00:05:57;9.60;96.50
10133;DHT22;5106;50.926;7.080;2024-03-22T00:08:22;9.60;96.50
10133;DHT22;5106;50.926;7.080;2024-03-22T00:10:48;9.60;96.50
10133;DHT22;5106;50.926;7.080;2024-03-22T00:13:14;9.60;96.50
10133;DHT22;5106;50.926;7.080;2024-03-22T00:15:39;9.60;96.50
10133;DHT22;5106;50.926;7.080;2024-03-22T00:18:05;9.50;96.50
10133;DHT22;5106;50.926;7.080;2024-03-22T00:20:31;9.60;96.50
10133;DHT22;5106;50.926;7.080;2024-03-22T00:22:56;9.60;96.50
10133;DHT22;5106;50.926;7.080;2024-03-22T00:25:22;9.60;96.50
10133;DHT22;5106;50.926;7.080;2024-03-22T00:27:47;9.50;96.50
10133;DHT22;5106;50.926;7.080;2024-03-22T00:30:13;9.60;96.50
10133;DHT22;5106;50.926;7.080;2024-03-22T00:32:39;9.60;96.50
10133;DHT22;5106;50.926;7.080;2024-03-22T00:35:05;9.60;96.50
10133;DHT22;5106;50.926;7.080;2024-03-22T00:37:31;9.50;96.50
10133;DHT22;5106;50.926;7.080;2024-03-22T00:39:56;9.50;96.50
10133;DHT22;5106;50.926;7.080;2024-03-22T00:42:22;9.60;96.50
10133;DHT22;5106;50.926;7.080;2024-03-22T00:44:47;9.50;96.50
10133;DHT22;5106;50.926;7.080;2024-03-22T00:47:13;9.50;96.50
10133;DHT22;5106;50.926;7.080;2024-03-22T00:49:38;9.50;96.50
10133;DHT22;5106;50.926;7.080;2024-03-22T00:52:13;9.50;96.50
10133;DHT22;5106;50.926;7.080;2024-03-22T00:54:38;9.50;96.50
10133;DHT22;5106;50.926;7.080;2024-03-22T00:57:05;9.50;96.50
10133;DHT22;5106;50.926;7.080;2024-03-22T00:59:31;9.50;96.50
10133;DHT22;5106;50.926;7.080;2024-03-22T01:01:57;9.50;96.50
10133;DHT22;5106;50.926;7.080;2024-03-22T01:04:22;9.50;96.50
10133;DHT22;5106;50.926;7.080;2024-03-22T01:06:48;9.50;96.50
10133;DHT22;5106;50.926;7.080;2024-03-22T01:09:14;9.50;96.50
10133;DHT22;5106;50.926;7.080;2024-03-22T01:11:39;9.40;96.50
10133;DHT22;5106;50.926;7.080;2024-03-22T01:14:05;9.40;96.50
10133;DHT22;5106;50.926;7.080;2024-03-22T01:16:31;9.40;96.50
10133;DHT22;5106;50.926;7.080;2024-03-22T01:18:56;9.40;96.50
10133;DHT22;5106;50.926;7.080;2024-03-22T01:21:22;9.50;96.50
10133;DHT22;5106;50.926;7.080;2024-03-22T01:23:53;9.40;96.50
10133;DHT22;5106;50.926;7.080;2024-03-22T01:26:19;9.40;96.50
10133;DHT22;5106;50.926;7.080;2024-03-22T01:28:46;9.40;96.50
10133;DHT22;5106;50.926;7.080;2024-03-22T01:31:11;9.40;96.50
10133;DHT22;5106;50.926;7.080;2024-03-22T01:33:37;9.40;96.50
10133;DHT22;5106;50.926;7.080;2024-03-22T01:36:03;9.40;96.50
10133;DHT22;5106;50.926;7.080;2024-03-22T01:38:30;9.40;96.50
10133;DHT22;5106;50.926;7.080;2024-03-22T01:40:56;9.50;96.50
10133;DHT22;5106;50.926;7.080;2024-03-22T01:43:22;9.40;96.50
10133;DHT22;5106;50.926;7.080;2024-03-22T01:45:47;9.50;96.50
10133;DHT22;5106;50.926;7.080;2024-03-22T01:48:13;9.40;96.50
10133;DHT22;5106;50.926;7.080;2024-03-22T01:50:39;9.50;96.50
10133;DHT22;5106;50.926;7.080;2024-03-22T01:53:05;9.50;96.50
10133;DHT22;5106;50.926;7.080;2024-03-22T01:55:31;9.40;96.50
10133;DHT22;5106;50.926;7.080;2024-03-22T01:57:56;9.40;96.50
10133;DHT22;5106;50.926;7.080;2024-03-22T02:00:22;9.40;96.50
10133;DHT22;5106;50.926;7.080;2024-03-22T02:02:48;9.40;96.50
10133;DHT22;5106;50.926;7.080;2024-03-22T02:05:17;9.40;96.50
10133;DHT22;5106;50.926;7.080;2024-03-22T02:07:47;9.50;96.50
10133;DHT22;5106;50.926;7.080;2024-03-22T02:10:13;9.50;96.50
10133;DHT22;5106;50.926;7.080;2024-03-22T02:12:39;9.50;96.50
10133;DHT22;5106;50.926;7.080;2024-03-22T02:15:06;9.50;96.50
10133;DHT22;5106;50.926;7.080;2024-03-22T02:17:32;9.50;96.50
10133;DHT22;5106;50.926;7.080;2024-03-22T02:19:59;9.50;96.50
10133;DHT22;5106;50.926;7.080;2024-03-22T02:22:25;9.40;96.50
10133;DHT22;5106;50.926;7.080;2024-03-22T02:24:51;9.50;96.50
10133;DHT22;5106;50.926;7.080;2024-03-22T02:27:16;9.50;96.50
10133;DHT22;5106;50.926;7.080;2024-03-22T02:29:42;9.50;96.50
10133;DHT22;5106;50.926;7.080;2024-03-22T02:32:08;9.50;96.50
10133;DHT22;5106;50.926;7.080;2024-03-22T02:34:33;9.50;96.50
10133;DHT22;5106;50.926;7.080;2024-03-22T02:36:59;9.50;96.50
10133;DHT22;5106;50.926;7.080;2024-03-22T02:39:24;9.50;96.50
10133;DHT22;5106;50.926;7.080;2024-03-22T02:41:50;9.50;96.50
10133;DHT22;5106;50.926;7.080;2024-03-22T02:44:16;9.50;96.50
10133;DHT22;5106;50.926;7.080;2024-03-22T02:46:42;9.50;96.50
10133;DHT22;5106;50.926;7.080;2024-03-22T02:49:07;9.50;96.50
10133;DHT22;5106;50.926;7.080;2024-03-22T02:51:33;9.50;96.50
10133;DHT22;5106;50.926;7.080;2024-03-22T02:53:58;9.60;96.50
10133;DHT22;5106;50.926;7.080;2024-03-22T02:56:24;9.60;96.50
10133;DHT22;5106;50.926;7.080;2024-03-22T02:58:49;9.60;96.50
10133;DHT22;5106;50.926;7.080;2024-03-22T03:01:15;9.60;96.50
10133;DHT22;5106;50.926;7.080;2024-03-22T03:03:41;9.60;96.50
10133;DHT22;5106;50.926;7.080;2024-03-22T03:06:06;9.60;96.50
10133;DHT22;5106;50.926;7.080;2024-03-22T03:08:32;9.60;96.50
10133;DHT22;5106;50.926;7.080;2024-03-22T03:10:57;9.70;96.50
10133;DHT22;5106;50.926;7.080;2024-03-22T03:13:23;9.70;96.50
10133;DHT22;5106;50.926;7.080;2024-03-22T03:15:49;9.60;96.50
10133;DHT22;5106;50.926;7.080;2024-03-22T03:18:14;9.60;96.50
10133;DHT22;5106;50.926;7.080;2024-03-22T03:20:40;9.70;96.50
10133;DHT22;5106;50.926;7.080;2024-03-22T03:23:05;9.70;96.50
10133;DHT22;5106;50.926;7.080;2024-03-22T03:25:31;9.70;96.50
10133;DHT22;5106;50.926;7.080;2024-03-22T03:27:56;9.70;96.50
10133;DHT22;5106;50.926;7.080;2024-03-22T03:30:22;9.70;96.50
10133;DHT22;5106;50.926;7.080;2024-03-22T03:32:47;9.70;96.50
10133;DHT22;5106;50.926;7.080;2024-03-22T03:35:13;9.70;96.50
10133;DHT22;5106;50.926;7.080;2024-03-22T03:37:39;9.70;96.50
10133;DHT22;5106;50.926;7.080;2024-03-22T03:40:05;9.70;96.50
10133;DHT22;5106;50.926;7.080;2024-03-22T03:42:30;9.70;96.50
10133;DHT22;5106;50.926;7.080;2024-03-22T03:44:57;9.70;96.50
10133;DHT22;5106;50.926;7.080;2024-03-22T03:47:23;9.70;96.50
10133;DHT22;5106;50.926;7.080;2024-03-22T03:49:48;9.70;96.50
10133;DHT22;5106;50.926;7.080;2024-03-22T03:52:14;9.70;96.50
10133;DHT22;5106;50.926;7.080;2024-03-22T03:54:39;9.70;96.50
10133;DHT22;5106;50.926;7.080;2024-03-22T03:57:05;9.70;96.50
10133;DHT22;5106;50.926;7.080;2024-03-22T03:59:31;9.70;96.50
10133;DHT22;5106;50.926;7.080;2024-03-22T04:01:56;9.70;96.50
10133;DHT22;5106;50.926;7.080;2024-03-22T04:04:22;9.70;96.50
10133;DHT22;5106;50.926;7.080;2024-03-22T04:06:48;9.70;96.50
10133;DHT22;5106;50.926;7.080;2024-03-22T04:09:13;9.70;96.50
10133;DHT22;5106;50.926;7.080;2024-03-22T04:11:39;9.70;96.50
10133;DHT22;5106;50.926;7.080;2024-03-22T04:14:05;9.70;96.50
10133;DHT22;5106;50.926;7.080;2024-03-22T04:16:31;9.70;96.50
10133;DHT22;5106;50.926;7.080;2024-03-22T04:18:57;9.70;96.50
10133;DHT22;5106;50.926;7.080;2024-03-22T04:21:22;9.70;96.50
10133;DHT22;5106;50.926;7.080;2024-03-22T04:23:48;9.70;96.50
10133;DHT22;5106;50.926;7.080;2024-03-22T04:26:15;9.70;96.50
10133;DHT22;5106;50.926;7.080;2024-03-22T04:28:40;9.70;96.50
10133;DHT22;5106;50.926;7.080;2024-03-22T04:31:07;9.70;96.50
10133;DHT22;5106;50.926;7.080;2024-03-22T04:33:37;9.70;96.50
10133;DHT22;5106;50.926;7.080;2024-03-22T04:36:03;9.70;96.50
10133;DHT22;5106;50.926;7.080;2024-03-22T04:38:29;9.70;96.50
10133;DHT22;5106;50.926;7.080;2024-03-22T04:40:56;9.70;96.50
10133;DHT22;5106;50.926;7.080;2024-03-22T04:43:23;9.70;96.50
10133;DHT22;5106;50.926;7.080;2024-03-22T04:45:49;9.60;96.50
10133;DHT22;5106;50.926;7.080;2024-03-22T04:48:20;9.60;96.50
10133;DHT22;5106;50.926;7.080;2024-03-22T04:50:47;9.60;96.50
10133;DHT22;5106;50.926;7.080;2024-03-22T04:53:15;9.60;96.50
10133;DHT22;5106;50.926;7.080;2024-03-22T04:55:43;9.60;96.50
10133;DHT22;5106;50.926;7.080;2024-03-22T04:58:14;9.60;96.50
10133;DHT22;5106;50.926;7.080;2024-03-22T05:00:41;9.60;96.50
10133;DHT22;5106;50.926;7.080;2024-03-22T05:03:07;9.50;96.50
10133;DHT22;5106;50.926;7.080;2024-03-22T05:05:34;9.50;96.50
10133;DHT22;5106;50.926;7.080;2024-03-22T05:07:59;9.50;96.50
10133;DHT22;5106;50.926;7.080;2024-03-22T05:10:25;9.60;96.50
10133;DHT22;5106;50.926;7.080;2024-03-22T05:12:50;9.50;96.50
10133;DHT22;5106;50.926;7.080;2024-03-22T05:15:16;9.50;96.50
10133;DHT22;5106;50.926;7.080;2024-03-22T05:17:42;9.50;96.50
10133;DHT22;5106;50.926;7.080;2024-03-22T05:20:09;9.50;96.50
10133;DHT22;5106;50.926;7.080;2024-03-22T05:22:37;9.50;96.50
10133;DHT22;5106;50.926;7.080;2024-03-22T05:25:03;9.50;96.50
10133;DHT22;5106;50.926;7.080;2024-03-22T05:27:31;9.50;96.50
10133;DHT22;5106;50.926;7.080;2024-03-22T05:29:58;9.50;96.50
10133;DHT22;5106;50.926;7.080;2024-03-22T05:32:24;9.50;96.50
10133;DHT22;5106;50.926;7.080;2024-03-22T05:34:50;9.50;96.50
10133;DHT22;5106;50.926;7.080;2024-03-22T05:37:16;9.50;96.50
10133;DHT22;5106;50.926;7.080;2024-03-22T05:39:42;9.50;96.50
10133;DHT22;5106;50.926;7.080;2024-03-22T05:42:07;9.50;96.50
10133;DHT22;5106;50.926;7.080;2024-03-22T05:44:33;9.50;96.50
10133;DHT22;5106;50.926;7.080;2024-03-22T05:46:59;9.60;96.50
10133;DHT22;5106;50.926;7.080;2024-03-22T05:49:24;9.60;96.50
10133;DHT22;5106;50.926;7.080;2024-03-22T05:51:50;9.60;96.50
10133;DHT22;5106;50.926;7.080;2024-03-22T05:54:15;9.70;96.50
10133;DHT22;5106;50.926;7.080;2024-03-22T05:56:41;9.70;96.50
10133;DHT22;5106;50.926;7.080;2024-03-22T05:59:06;9.70;96.50
10133;DHT22;5106;50.926;7.080;2024-03-22T06:01:32;9.80;96.50
10133;DHT22;5106;50.926;7.080;2024-03-22T06:03:58;9.80;96.50
10133;DHT22;5106;50.926;7.080;2024-03-22T06:06:23;9.90;96.50
10133;DHT22;5106;50.926;7.080;2024-03-22T06:08:52;10.00;96.50
10133;DHT22;5106;50.926;7.080;2024-03-22T06:11:22;10.00;96.50
10133;DHT22;5106;50.926;7.080;2024-03-22T06:13:48;10.10;96.50
10133;DHT22;5106;50.926;7.080;2024-03-22T06:16:13;10.20;96.50
10133;DHT22;5106;50.926;7.080;2024-03-22T06:18:39;10.20;96.50
10133;DHT22;5106;50.926;7.080;2024-03-22T06:21:06;10.30;96.50
10133;DHT22;5106;50.926;7.080;2024-03-22T06:23:32;10.30;96.50
10133;DHT22;5106;50.926;7.080;2024-03-22T06:25:57;10.40;96.50
10133;DHT22;5106;50.926;7.080;2024-03-22T06:28:23;10.40;96.50
10133;DHT22;5106;50.926;7.080;2024-03-22T06:30:49;10.50;96.50
10133;DHT22;5106;50.926;7.080;2024-03-22T06:33:15;10.50;96.50
10133;DHT22;5106;50.926;7.080;2024-03-22T06:35:43;10.60;96.50
10133;DHT22;5106;50.926;7.080;2024-03-22T06:38:09;10.60;96.50
10133;DHT22;5106;50.926;7.080;2024-03-22T06:40:34;10.70;96.50
10133;DHT22;5106;50.926;7.080;2024-03-22T06:43:00;10.70;96.50
10133;DHT22;5106;50.926;7.080;2024-03-22T06:45:26;10.70;96.50
10133;DHT22;5106;50.926;7.080;2024-03-22T06:47:51;10.70;96.50
10133;DHT22;5106;50.926;7.080;2024-03-22T06:50:17;10.70;96.50
10133;DHT22;5106;50.926;7.080;2024-03-22T06:52:43;10.80;96.50
10133;DHT22;5106;50.926;7.080;2024-03-22T06:55:09;10.80;96.50
10133;DHT22;5106;50.926;7.080;2024-03-22T06:57:39;10.80;96.50
10133;DHT22;5106;50.926;7.080;2024-03-22T07:00:05;10.80;96.50
10133;DHT22;5106;50.926;7.080;2024-03-22T07:02:30;10.80;96.50
10133;DHT22;5106;50.926;7.080;2024-03-22T07:04:56;10.90;96.50
10133;DHT22;5106;50.926;7.080;2024-03-22T07:07:22;10.90;96.50
10133;DHT22;5106;50.926;7.080;2024-03-22T07:09:47;11.00;96.50
10133;DHT22;5106;50.926;7.080;2024-03-22T07:12:13;11.10;96.50
10133;DHT22;5106;50.926;7.080;2024-03-22T07:14:38;11.20;96.50
10133;DHT22;5106;50.926;7.080;2024-03-22T07:17:04;11.40;96.50
10133;DHT22;5106;50.926;7.080;2024-03-22T07:19:30;11.50;96.50
10133;DHT22;5106;50.926;7.080;2024-03-22T07:21:56;11.70;96.50
10133;DHT22;5106;50.926;7.080;2024-03-22T07:24:23;11.80;96.50
10133;DHT22;5106;50.926;7.080;2024-03-22T07:26:49;12.00;96.50
10133;DHT22;5106;50.926;7.080;2024-03-22T07:29:15;12.10;96.50
10133;DHT22;5106;50.926;7.080;2024-03-22T07:31:41;12.20;96.50
10133;DHT22;5106;50.926;7.080;2024-03-22T07:34:06;12.30;96.50
10133;DHT22;5106;50.926;7.080;2024-03-22T07:36:32;12.40;96.50
10133;DHT22;5106;50.926;7.080;2024-03-22T07:39:02;12.50;96.50
10133;DHT22;5106;50.926;7.080;2024-03-22T07:41:28;12.50;96.50
10133;DHT22;5106;50.926;7.080;2024-03-22T07:43:54;12.60;96.50
10133;DHT22;5106;50.926;7.080;2024-03-22T07:46:20;12.60;96.50
10133;DHT22;5106;50.926;7.080;2024-03-22T07:48:47;12.70;96.50
10133;DHT22;5106;50.926;7.080;2024-03-22T07:51:13;12.70;96.50
10133;DHT22;5106;50.926;7.080;2024-03-22T07:53:38;12.70;96.50
10133;DHT22;5106;50.926;7.080;2024-03-22T07:56:04;12.80;96.50
10133;DHT22;5106;50.926;7.080;2024-03-22T07:58:29;12.80;96.50
10133;DHT22;5106;50.926;7.080;2024-03-22T08:00:55;12.90;96.50
10133;DHT22;5106;50.926;7.080;2024-03-22T08:03:21;12.90;96.50
10133;DHT22;5106;50.926;7.080;2024-03-22T08:05:46;13.00;96.50
10133;DHT22;5106;50.926;7.080;2024-03-22T08:08:12;13.10;96.50
10133;DHT22;5106;50.926;7.080;2024-03-22T08:10:37;13.20;96.50
10133;DHT22;5106;50.926;7.080;2024-03-22T08:13:03;13.40;96.50
10133;DHT22;5106;50.926;7.080;2024-03-22T08:15:29;13.60;96.50
10133;DHT22;5106;50.926;7.080;2024-03-22T08:17:55;13.70;96.50
10133;DHT22;5106;50.926;7.080;2024-03-22T08:20:23;13.80;96.50
10133;DHT22;5106;50.926;7.080;2024-03-22T08:22:48;13.90;96.50
10133;DHT22;5106;50.926;7.080;2024-03-22T08:25:14;13.90;96.50
10133;DHT22;5106;50.926;7.080;2024-03-22T08:27:46;14.00;96.50
10133;DHT22;5106;50.926;7.080;2024-03-22T08:30:12;13.90;96.50
10133;DHT22;5106;50.926;7.080;2024-03-22T08:32:38;14.00;96.50
10133;DHT22;5106;50.926;7.080;2024-03-22T08:35:04;14.00;96.50
10133;DHT22;5106;50.926;7.080;2024-03-22T08:37:30;14.00;96.50
10133;DHT22;5106;50.926;7.080;2024-03-22T08:39:56;14.10;96.50
10133;DHT22;5106;50.926;7.080;2024-03-22T08:42:21;14.30;96.50
10133;DHT22;5106;50.926;7.080;2024-03-22T08:44:47;14.40;96.50
10133;DHT22;5106;50.926;7.080;2024-03-22T08:47:12;14.50;96.50
10133;DHT22;5106;50.926;7.080;2024-03-22T08:49:38;14.70;96.50
10133;DHT22;5106;50.926;7.080;2024-03-22T08:52:04;14.80;96.50
10133;DHT22;5106;50.926;7.080;2024-03-22T08:54:30;14.80;96.50
10133;DHT22;5106;50.926;7.080;2024-03-22T08:56:55;14.90;96.50
10133;DHT22;5106;50.926;7.080;2024-03-22T08:59:21;14.90;96.50
10133;DHT22;5106;50.926;7.080;2024-03-22T09:01:48;14.80;96.50
10133;DHT22;5106;50.926;7.080;2024-03-22T09:04:14;14.80;96.50
10133;DHT22;5106;50.926;7.080;2024-03-22T09:06:40;14.80;96.50
10133;DHT22;5106;50.926;7.080;2024-03-22T09:09:06;14.80;96.50
10133;DHT22;5106;50.926;7.080;2024-03-22T09:11:32;14.80;96.50
10133;DHT22;5106;50.926;7.080;2024-03-22T09:13:58;14.90;96.50
10133;DHT22;5106;50.926;7.080;2024-03-22T09:16:23;14.90;96.50
10133;DHT22;5106;50.926;7.080;2024-03-22T09:18:49;15.10;96.50
10133;DHT22;5106;50.926;7.080;2024-03-22T09:21:15;15.20;96.50
10133;DHT22;5106;50.926;7.080;2024-03-22T09:23:40;15.20;96.50
10133;DHT22;5106;50.926;7.080;2024-03-22T09:26:06;15.30;96.50
10133;DHT22;5106;50.926;7.080;2024-03-22T09:28:31;15.40;96.50
10133;DHT22;5106;50.926;7.080;2024-03-22T09:30:57;15.50;96.50
10133;DHT22;5106;50.926;7.080;2024-03-22T09:33:23;15.60;96.50
10133;DHT22;5106;50.926;7.080;2024-03-22T09:35:48;15.60;96.50
10133;DHT22;5106;50.926;7.080;2024-03-22T09:38:14;15.50;96.50
10133;DHT22;5106;50.926;7.080;2024-03-22T09:40:41;15.50;96.50
10133;DHT22;5106;50.926;7.080;2024-03-22T09:43:07;15.50;96.50
10133;DHT22;5106;50.926;7.080;2024-03-22T09:45:33;15.60;96.50
10133;DHT22;5106;50.926;7.080;2024-03-22T09:47:59;15.70;96.50
10133;DHT22;5106;50.926;7.080;2024-03-22T09:50:26;15.70;96.50
10133;DHT22;5106;50.926;7.080;2024-03-22T09:52:52;15.70;96.50
10133;DHT22;5106;50.926;7.080;2024-03-22T09:55:27;15.80;96.50
10133;DHT22;5106;50.926;7.080;2024-03-22T09:57:54;15.80;96.50
10133;DHT22;5106;50.926;7.080;2024-03-22T10:00:20;15.80;96.50
10133;DHT22;5106;50.926;7.080;2024-03-22T10:02:48;15.80;96.50
10133;DHT22;5106;50.926;7.080;2024-03-22T10:05:15;15.80;96.50
10133;DHT22;5106;50.926;7.080;2024-03-22T10:07:40;15.80;96.50
10133;DHT22;5106;50.926;7.080;2024-03-22T10:10:07;15.80;96.50
10133;DHT22;5106;50.926;7.080;2024-03-22T10:12:33;15.90;96.50
10133;DHT22;5106;50.926;7.080;2024-03-22T10:14:58;15.90;96.50
10133;DHT22;5106;50.926;7.080;2024-03-22T10:17:26;16.00;96.50
10133;DHT22;5106;50.926;7.080;2024-03-22T10:19:52;16.00;96.50
10133;DHT22;5106;50.926;7.080;2024-03-22T10:22:18;16.10;96.50
10133;DHT22;5106;50.926;7.080;2024-03-22T10:24:44;16.10;96.50
10133;DHT22;5106;50.926;7.080;2024-03-22T10:27:10;16.10;96.50
10133;DHT22;5106;50.926;7.080;2024-03-22T10:29:36;16.00;96.50
10133;DHT22;5106;50.926;7.080;2024-03-22T10:32:02;16.00;96.50
10133;DHT22;5106;50.926;7.080;2024-03-22T10:34:28;15.90;96.50
10133;DHT22;5106;50.926;7.080;2024-03-22T10:36:55;15.90;96.50
10133;DHT22;5106;50.926;7.080;2024-03-22T10:39:23;15.90;96.50
10133;DHT22;5106;50.926;7.080;2024-03-22T10:41:49;15.90;96.50
10133;DHT22;5106;50.926;7.080;2024-03-22T10:44:15;15.90;96.50
10133;DHT22;5106;50.926;7.080;2024-03-22T10:46:45;15.90;96.50
10133;DHT22;5106;50.926;7.080;2024-03-22T10:49:19;15.90;96.50
10133;DHT22;5106;50.926;7.080;2024-03-22T10:51:54;15.90;96.50
10133;DHT22;5106;50.926;7.080;2024-03-22T10:54:25;15.90;96.50
10133;DHT22;5106;50.926;7.080;2024-03-22T10:56:51;15.80;96.50
10133;DHT22;5106;50.926;7.080;2024-03-22T10:59:23;15.80;96.50
10133;DHT22;5106;50.926;7.080;2024-03-22T11:01:49;15.80;96.50
10133;DHT22;5106;50.926;7.080;2024-03-22T11:04:19;15.80;96.50
10133;DHT22;5106;50.926;7.080;2024-03-22T11:06:49;15.90;96.50
10133;DHT22;5106;50.926;7.080;2024-03-22T11:09:21;15.90;96.50
10133;DHT22;5106;50.926;7.080;2024-03-22T11:11:48;15.90;96.50
10133;DHT22;5106;50.926;7.080;2024-03-22T11:14:14;16.00;96.50
10133;DHT22;5106;50.926;7.080;2024-03-22T11:16:43;16.00;96.50
10133;DHT22;5106;50.926;7.080;2024-03-22T11:19:09;16.00;96.50
10133;DHT22;5106;50.926;7.080;2024-03-22T11:21:35;15.90;96.50
10133;DHT22;5106;50.926;7.080;2024-03-22T11:24:01;16.00;96.50
10133;DHT22;5106;50.926;7.080;2024-03-22T11:26:26;16.00;96.50
10133;DHT22;5106;50.926;7.080;2024-03-22T11:28:52;16.00;96.50
10133;DHT22;5106;50.926;7.080;2024-03-22T11:31:18;16.10;96.50
10133;DHT22;5106;50.926;7.080;2024-03-22T11:33:47;16.20;96.50
10133;DHT22;5106;50.926;7.080;2024-03-22T11:36:13;16.20;96.50
10133;DHT22;5106;50.926;7.080;2024-03-22T11:38:39;16.30;96.50
10133;DHT22;5106;50.926;7.080;2024-03-22T11:41:05;16.40;96.50
10133;DHT22;5106;50.926;7.080;2024-03-22T11:43:31;16.40;96.50
10133;DHT22;5106;50.926;7.080;2024-03-22T11:45:57;16.50;96.50
10133;DHT22;5106;50.926;7.080;2024-03-22T11:48:23;16.60;96.50
10133;DHT22;5106;50.926;7.080;2024-03-22T11:50:49;16.60;96.50
10133;DHT22;5106;50.926;7.080;2024-03-22T11:53:18;16.50;96.50
10133;DHT22;5106;50.926;7.080;2024-03-22T11:55:43;16.50;96.50
10133;DHT22;5106;50.926;7.080;2024-03-22T11:58:09;16.50;96.50
10133;DHT22;5106;50.926;7.080;2024-03-22T12:00:36;16.40;96.50
10133;DHT22;5106;50.926;7.080;2024-03-22T12:03:04;16.30;96.50
10133;DHT22;5106;50.926;7.080;2024-03-22T12:05:31;16.20;96.50
10133;DHT22;5106;50.926;7.080;2024-03-22T12:07:57;16.10;96.50
10133;DHT22;5106;50.926;7.080;2024-03-22T12:10:22;16.00;96.50
10133;DHT22;5106;50.926;7.080;2024-03-22T12:12:49;16.00;96.50
10133;DHT22;5106;50.926;7.080;2024-03-22T12:15:14;15.90;96.50
10133;DHT22;5106;50.926;7.080;2024-03-22T12:17:40;15.90;96.50
10133;DHT22;5106;50.926;7.080;2024-03-22T12:20:09;15.90;96.50
10133;DHT22;5106;50.926;7.080;2024-03-22T12:22:35;15.90;96.50
10133;DHT22;5106;50.926;7.080;2024-03-22T12:25:01;16.00;96.50
10133;DHT22;5106;50.926;7.080;2024-03-22T12:27:27;16.00;96.50
10133;DHT22;5106;50.926;7.080;2024-03-22T12:29:52;15.90;96.50
10133;DHT22;5106;50.926;7.080;2024-03-22T12:32:18;15.90;96.50
10133;DHT22;5106;50.926;7.080;2024-03-22T12:34:44;15.90;96.50
10133;DHT22;5106;50.926;7.080;2024-03-22T12:37:10;15.90;96.50
10133;DHT22;5106;50.926;7.080;2024-03-22T12:39:35;15.90;96.50
10133;DHT22;5106;50.926;7.080;2024-03-22T12:42:02;15.80;96.50
10133;DHT22;5106;50.926;7.080;2024-03-22T12:44:28;15.80;96.50
10133;DHT22;5106;50.926;7.080;2024-03-22T12:46:54;15.80;96.50
10133;DHT22;5106;50.926;7.080;2024-03-22T12:49:20;15.60;96.50
10133;DHT22;5106;50.926;7.080;2024-03-22T12:51:45;15.60;96.50
10133;DHT22;5106;50.926;7.080;2024-03-22T12:54:11;15.60;96.50
10133;DHT22;5106;50.926;7.080;2024-03-22T12:56:40;15.50;96.50
10133;DHT22;5106;50.926;7.080;2024-03-22T12:59:05;15.50;96.50
10133;DHT22;5106;50.926;7.080;2024-03-22T13:01:32;15.50;96.50
10133;DHT22;5106;50.926;7.080;2024-03-22T13:03:58;15.50;96.50
10133;DHT22;5106;50.926;7.080;2024-03-22T13:06:23;15.50;96.50
10133;DHT22;5106;50.926;7.080;2024-03-22T13:08:49;15.50;96.50
10133;DHT22;5106;50.926;7.080;2024-03-22T13:11:16;15.50;96.50
10133;DHT22;5106;50.926;7.080;2024-03-22T13:13:42;15.50;96.50
10133;DHT22;5106;50.926;7.080;2024-03-22T13:16:09;15.60;96.50
10133;DHT22;5106;50.926;7.080;2024-03-22T13:18:37;15.60;96.50
10133;DHT22;5106;50.926;7.080;2024-03-22T13:21:02;15.70;96.50
10133;DHT22;5106;50.926;7.080;2024-03-22T13:23:30;15.80;96.50
10133;DHT22;5106;50.926;7.080;2024-03-22T13:25:56;16.00;96.50
10133;DHT22;5106;50.926;7.080;2024-03-22T13:28:24;16.20;96.50
10133;DHT22;5106;50.926;7.080;2024-03-22T13:30:58;16.30;96.50
10133;DHT22;5106;50.926;7.080;2024-03-22T13:33:24;16.50;96.50
10133;DHT22;5106;50.926;7.080;2024-03-22T13:35:49;16.50;96.50
10133;DHT22;5106;50.926;7.080;2024-03-22T13:38:15;16.40;96.50
10133;DHT22;5106;50.926;7.080;2024-03-22T13:40:41;16.50;96.50
10133;DHT22;5106;50.926;7.080;2024-03-22T13:43:09;16.50;96.50
10133;DHT22;5106;50.926;7.080;2024-03-22T13:45:41;16.60;96.50
10133;DHT22;5106;50.926;7.080;2024-03-22T13:48:10;16.60;96.50
10133;DHT22;5106;50.926;7.080;2024-03-22T13:50:37;16.60;96.50
10133;DHT22;5106;50.926;7.080;2024-03-22T13:53:03;16.60;96.50
10133;DHT22;5106;50.926;7.080;2024-03-22T13:55:29;16.60;96.50
10133;DHT22;5106;50.926;7.080;2024-03-22T13:57:54;16.60;96.50
10133;DHT22;5106;50.926;7.080;2024-03-22T14:00:20;16.60;96.50
10133;DHT22;5106;50.926;7.080;2024-03-22T14:02:45;16.60;96.50
10133;DHT22;5106;50.926;7.080;2024-03-22T14:05:17;16.60;96.50
10133;DHT22;5106;50.926;7.080;2024-03-22T14:07:43;16.60;96.50
10133;DHT22;5106;50.926;7.080;2024-03-22T14:10:09;16.60;96.50
10133;DHT22;5106;50.926;7.080;2024-03-22T14:12:35;16.60;96.50
10133;DHT22;5106;50.926;7.080;2024-03-22T14:15:00;16.50;96.50
10133;DHT22;5106;50.926;7.080;2024-03-22T14:17:26;16.50;96.50
10133;DHT22;5106;50.926;7.080;2024-03-22T14:19:51;16.50;96.50
10133;DHT22;5106;50.926;7.080;2024-03-22T14:22:18;16.50;96.50
10133;DHT22;5106;50.926;7.080;2024-03-22T14:24:43;16.60;96.50
10133;DHT22;5106;50.926;7.080;2024-03-22T14:27:09;16.60;96.50
10133;DHT22;5106;50.926;7.080;2024-03-22T14:29:35;16.60;96.50
10133;DHT22;5106;50.926;7.080;2024-03-22T14:32:00;16.50;96.50
10133;DHT22;5106;50.926;7.080;2024-03-22T14:34:26;16.40;96.50
10133;DHT22;5106;50.926;7.080;2024-03-22T14:36:51;16.20;96.50
10133;DHT22;5106;50.926;7.080;2024-03-22T14:39:17;16.10;96.50
10133;DHT22;5106;50.926;7.080;2024-03-22T14:41:43;16.10;96.50
10133;DHT22;5106;50.926;7.080;2024-03-22T14:44:09;16.10;96.50
10133;DHT22;5106;50.926;7.080;2024-03-22T14:46:35;16.10;96.50
10133;DHT22;5106;50.926;7.080;2024-03-22T14:49:00;16.10;96.50
10133;DHT22;5106;50.926;7.080;2024-03-22T14:51:26;16.20;96.50
10133;DHT22;5106;50.926;7.080;2024-03-22T14:53:52;16.20;96.50
10133;DHT22;5106;50.926;7.080;2024-03-22T14:56:17;16.40;96.50
10133;DHT22;5106;50.926;7.080;2024-03-22T14:58:43;16.40;96.50
10133;DHT22;5106;50.926;7.080;2024-03-22T15:01:09;16.40;96.50
10133;DHT22;5106;50.926;7.080;2024-03-22T15:03:35;16.50;96.50
10133;DHT22;5106;50.926;7.080;2024-03-22T15:06:01;16.60;96.50
10133;DHT22;5106;50.926;7.080;2024-03-22T15:08:27;16.80;96.50
10133;DHT22;5106;50.926;7.080;2024-03-22T15:10:53;16.80;96.50
10133;DHT22;5106;50.926;7.080;2024-03-22T15:13:19;16.80;96.50
10133;DHT22;5106;50.926;7.080;2024-03-22T15:15:55;16.70;96.50
10133;DHT22;5106;50.926;7.080;2024-03-22T15:18:21;16.50;96.50
10133;DHT22;5106;50.926;7.080;2024-03-22T15:20:47;16.40;96.50
10133;DHT22;5106;50.926;7.080;2024-03-22T15:23:14;16.30;96.50
10133;DHT22;5106;50.926;7.080;2024-03-22T15:25:41;16.20;96.50
10133;DHT22;5106;50.926;7.080;2024-03-22T15:28:06;15.90;96.50
10133;DHT22;5106;50.926;7.080;2024-03-22T15:30:32;15.80;96.50
10133;DHT22;5106;50.926;7.080;2024-03-22T15:32:59;15.80;96.50
10133;DHT22;5106;50.926;7.080;2024-03-22T15:35:25;15.60;96.50
10133;DHT22;5106;50.926;7.080;2024-03-22T15:37:51;15.50;96.50
10133;DHT22;5106;50.926;7.080;2024-03-22T15:40:16;15.50;96.50
10133;DHT22;5106;50.926;7.080;2024-03-22T15:42:42;15.40;96.50
10133;DHT22;5106;50.926;7.080;2024-03-22T15:45:08;15.40;96.50